createdAt,value
2023-04-22T00:01:46.627Z,13.76
2023-04-22T00:05:48.235Z,13.73
2023-04-22T00:09:50.048Z,13.75
2023-04-22T00:13:51.700Z,13.75
2023-04-22T00:17:53.583Z,13.71
2023-04-22T00:21:55.231Z,13.65
2023-04-22T00:25:56.812Z,13.54
2023-04-22T00:29:58.378Z,13.48
2023-04-22T00:33:59.914Z,13.44
2023-04-22T00:38:01.505Z,13.44
2023-04-22T00:42:03.304Z,13.47
2023-04-22T00:46:05.290Z,13.44
2023-04-22T00:50:07.825Z,13.44
2023-04-22T00:54:09.381Z,13.39
2023-04-22T00:58:11.314Z,13.36
2023-04-22T01:02:13.259Z,13.32
2023-04-22T01:06:15.176Z,13.32
2023-04-22T01:10:17.915Z,13.29
2023-04-22T01:14:19.504Z,13.27
2023-04-22T01:18:21.093Z,13.29
2023-04-22T01:22:23.164Z,13.22
2023-04-22T01:26:24.867Z,13.17
2023-04-22T01:30:26.581Z,13.14
2023-04-22T01:34:28.387Z,13.10
2023-04-22T01:38:33.365Z,13.09
2023-04-22T01:42:35.564Z,13.07
2023-04-22T01:46:37.346Z,13.12
2023-04-22T01:50:41.031Z,13.13
2023-04-22T01:54:42.516Z,13.14
2023-04-22T01:58:45.375Z,13.16
2023-04-22T02:02:47.045Z,13.13
2023-04-22T02:06:48.636Z,13.13
2023-04-22T02:10:50.203Z,13.12
2023-04-22T02:14:51.809Z,13.07
2023-04-22T02:18:53.639Z,13.04
2023-04-22T02:22:55.330Z,13.04
2023-04-22T02:26:56.911Z,13.04
2023-04-22T02:30:58.599Z,13.04
2023-04-22T02:35:01.985Z,12.99
2023-04-22T02:39:04.534Z,12.99
2023-04-22T02:43:06.066Z,12.98
2023-04-22T02:47:07.913Z,13.01
2023-04-22T02:51:09.784Z,13.01
2023-04-22T02:55:11.408Z,13.01
2023-04-22T02:59:13.053Z,13.01
2023-04-22T03:03:15.598Z,12.98
2023-04-22T03:07:17.272Z,12.96
2023-04-22T03:11:18.847Z,12.88
2023-04-22T03:15:21.673Z,12.87
2023-04-22T03:19:23.558Z,12.80
2023-04-22T03:23:25.221Z,12.81
2023-04-22T03:27:26.914Z,12.79
2023-04-22T03:31:29.764Z,12.79
2023-04-22T03:35:31.474Z,12.76
2023-04-22T03:39:35.425Z,12.73
2023-04-22T03:43:37.247Z,12.69
2023-04-22T03:47:43.943Z,12.62
2023-04-22T03:51:55.904Z,12.56
2023-04-22T03:55:59.476Z,12.52
2023-04-22T04:00:01.245Z,12.46
2023-04-22T04:04:03.133Z,12.46
2023-04-22T04:08:13.602Z,12.41
2023-04-22T04:12:15.151Z,12.38
2023-04-22T04:16:19.327Z,12.34
2023-04-22T04:20:26.988Z,12.31
2023-04-22T04:24:28.766Z,12.30
2023-04-22T04:28:38.519Z,12.26
2023-04-22T04:32:40.720Z,12.29
2023-04-22T04:36:46.430Z,12.30
2023-04-22T04:41:01.554Z,12.30
2023-04-22T04:45:04.216Z,12.29
2023-04-22T04:49:09.383Z,12.31
2023-04-22T04:53:21.903Z,12.31
2023-04-22T04:57:24.199Z,12.34
2023-04-22T05:01:26.681Z,12.34
2023-04-22T05:05:35.829Z,12.40
2023-04-22T05:09:38.139Z,12.43
2023-04-22T05:13:41.138Z,12.48
2023-04-22T05:17:46.296Z,12.55
2023-04-22T05:21:48.125Z,12.56
2023-04-22T05:25:53.266Z,12.58
2023-04-22T05:29:55.450Z,12.54
2023-04-22T05:34:02.799Z,12.49
2023-04-22T05:38:04.773Z,12.44
2023-04-22T05:42:08.947Z,12.44
2023-04-22T05:46:10.730Z,12.48
2023-04-22T05:50:14.698Z,12.48
2023-04-22T05:54:25.086Z,12.51
2023-04-22T05:58:26.801Z,12.51
2023-04-22T06:02:29.997Z,12.55
2023-04-22T06:06:32.552Z,12.56
2023-04-22T06:10:34.165Z,12.63
2023-04-22T06:14:35.852Z,12.69
2023-04-22T06:18:38.292Z,12.73
2023-04-22T06:22:45.040Z,12.84
2023-04-22T06:26:46.693Z,12.94
2023-04-22T06:30:48.550Z,13.01
2023-04-22T06:34:51.034Z,13.09
2023-04-22T06:38:52.783Z,13.13
2023-04-22T06:43:13.553Z,13.19
2023-04-22T06:47:24.159Z,13.29
2023-04-22T06:51:42.666Z,13.46
2023-04-22T06:55:44.436Z,13.53
2023-04-22T06:59:47.001Z,13.65
2023-04-22T07:03:49.863Z,13.75
2023-04-22T07:07:51.752Z,13.88
2023-04-22T07:11:57.877Z,13.99
2023-04-22T07:16:01.429Z,14.09
2023-04-22T07:20:03.059Z,14.13
2023-04-22T07:24:04.862Z,14.13
2023-04-22T07:28:06.397Z,14.09
2023-04-22T07:32:08.123Z,14.11
2023-04-22T07:36:09.900Z,14.11
2023-04-22T07:40:13.891Z,14.19
2023-04-22T07:44:18.422Z,14.31
2023-04-22T07:48:19.981Z,14.46
2023-04-22T07:52:21.564Z,14.56
2023-04-22T07:56:23.228Z,14.66
2023-04-22T08:00:24.940Z,14.82
2023-04-22T08:04:26.973Z,14.93
2023-04-22T08:08:28.810Z,15.07
2023-04-22T08:12:30.319Z,15.19
2023-04-22T08:16:32.130Z,15.27
2023-04-22T08:20:33.751Z,15.41
2023-04-22T08:24:35.470Z,15.62
2023-04-22T08:28:37.320Z,15.77
2023-04-22T08:32:38.981Z,15.89
2023-04-22T08:36:40.550Z,16.01
2023-04-22T08:40:42.798Z,16.16
2023-04-22T08:44:45.275Z,16.36
2023-04-22T08:48:51.011Z,16.62
2023-04-22T08:52:52.674Z,16.85
2023-04-22T08:56:54.950Z,17.02
2023-04-22T09:00:56.728Z,17.17
2023-04-22T09:05:01.259Z,17.32
2023-04-22T09:09:03.318Z,17.45
2023-04-22T09:13:06.641Z,17.54
2023-04-22T09:17:08.372Z,17.62
2023-04-22T09:21:09.978Z,17.73
2023-04-22T09:25:22.773Z,17.77
2023-04-22T09:29:30.553Z,17.84
2023-04-22T09:33:32.206Z,17.98
2023-04-22T09:37:46.525Z,18.11
2023-04-22T09:41:55.049Z,18.23
2023-04-22T09:45:59.524Z,18.25
2023-04-22T09:50:04.411Z,18.39
2023-04-22T09:54:11.182Z,18.49
2023-04-22T09:58:15.130Z,18.57
2023-04-22T10:02:16.745Z,18.66
2023-04-22T10:06:18.346Z,18.75
2023-04-22T10:10:20.107Z,18.87
2023-04-22T10:14:22.541Z,18.96
2023-04-22T10:18:28.747Z,19.07
2023-04-22T10:22:32.764Z,19.06
2023-04-22T10:26:52.011Z,19.13
2023-04-22T10:30:53.817Z,19.27
2023-04-22T10:35:11.768Z,19.32
2023-04-22T10:39:17.261Z,19.61
2023-04-22T10:43:19.828Z,19.86
2023-04-22T10:47:35.317Z,20.08
2023-04-22T10:51:41.234Z,20.20
2023-04-22T10:55:53.258Z,20.34
2023-04-22T10:59:57.628Z,20.42
2023-04-22T11:04:20.339Z,20.58
2023-04-22T11:08:23.730Z,20.66
2023-04-22T11:12:42.135Z,20.81
2023-04-22T11:16:47.615Z,20.94
2023-04-22T11:20:50.947Z,21.09
2023-04-22T11:25:00.327Z,21.27
2023-04-22T11:29:01.952Z,21.38
2023-04-22T11:33:03.657Z,21.55
2023-04-22T11:37:05.430Z,21.75
2023-04-22T11:41:07.095Z,21.96
2023-04-22T11:45:09.440Z,21.91
2023-04-22T11:49:12.980Z,22.01
2023-04-22T11:53:19.809Z,22.35
2023-04-22T11:57:21.874Z,22.36
2023-04-22T12:01:23.638Z,22.63
2023-04-22T12:05:35.758Z,22.85
2023-04-22T12:09:39.105Z,23.22
2023-04-22T12:13:46.189Z,22.96
2023-04-22T12:17:50.452Z,22.60
2023-04-22T12:21:56.574Z,22.33
2023-04-22T12:25:58.129Z,22.09
2023-04-22T12:29:59.670Z,22.02
2023-04-22T12:34:02.093Z,22.14
2023-04-22T12:38:03.701Z,22.14
2023-04-22T12:42:06.531Z,22.11
2023-04-22T12:46:09.140Z,22.12
2023-04-22T12:50:10.834Z,22.05
2023-04-22T12:54:12.410Z,21.93
2023-04-22T12:58:14.155Z,21.74
2023-04-22T13:02:16.104Z,21.52
2023-04-22T13:06:17.872Z,21.33
2023-04-22T13:10:20.522Z,21.16
2023-04-22T13:14:22.043Z,21.08
2023-04-22T13:18:23.783Z,21.08
2023-04-22T13:22:25.446Z,21.06
2023-04-22T13:26:27.098Z,20.96
2023-04-22T13:30:28.766Z,20.82
2023-04-22T13:34:30.428Z,20.66
2023-04-22T13:38:32.011Z,20.58
2023-04-22T13:42:34.228Z,20.57
2023-04-22T13:46:35.880Z,20.56
2023-04-22T13:50:37.524Z,20.53
2023-04-22T13:54:39.084Z,20.54
2023-04-22T13:58:42.455Z,20.48
2023-04-22T14:02:44.555Z,20.40
2023-04-22T14:06:46.678Z,20.30
2023-04-22T14:10:48.355Z,20.19
2023-04-22T14:14:49.880Z,20.12
2023-04-22T14:18:51.489Z,20.13
2023-04-22T14:22:53.188Z,20.19
2023-04-22T14:26:58.255Z,20.31
2023-04-22T14:31:00.024Z,20.46
2023-04-22T14:35:01.773Z,20.61
2023-04-22T14:39:03.392Z,20.66
2023-04-22T14:43:06.277Z,20.73
2023-04-22T14:47:07.826Z,21.06
2023-04-22T14:51:09.429Z,21.46
2023-04-22T14:55:22.038Z,21.70
2023-04-22T14:59:24.570Z,21.64
2023-04-22T15:03:26.324Z,21.71
2023-04-22T15:07:28.240Z,21.86
2023-04-22T15:11:29.762Z,21.99
2023-04-22T15:15:31.283Z,22.02
2023-04-22T15:19:32.973Z,21.94
2023-04-22T15:23:34.524Z,22.01
2023-04-22T15:27:37.815Z,22.15
2023-04-22T15:31:39.357Z,22.24
2023-04-22T15:35:43.144Z,22.29
2023-04-22T15:39:44.786Z,22.29
2023-04-22T15:43:47.968Z,22.24
2023-04-22T15:47:52.228Z,22.15
2023-04-22T15:51:54.070Z,22.15
2023-04-22T15:55:55.675Z,21.96
2023-04-22T16:00:09.415Z,21.75
2023-04-22T16:04:15.822Z,21.55
2023-04-22T16:08:17.526Z,21.45
2023-04-22T16:12:21.181Z,21.31
2023-04-22T16:16:23.888Z,21.22
2023-04-22T16:20:25.642Z,21.13
2023-04-22T16:24:27.325Z,21.00
2023-04-22T16:28:28.861Z,20.91
2023-04-22T16:32:31.102Z,20.79
2023-04-22T16:36:32.830Z,20.73
2023-04-22T16:40:35.026Z,20.71
2023-04-22T16:44:36.550Z,20.69
2023-04-22T16:48:38.093Z,20.72
2023-04-22T16:52:40.001Z,20.81
2023-04-22T16:56:41.649Z,20.87
2023-04-22T17:00:43.208Z,20.88
2023-04-22T17:04:44.973Z,20.88
2023-04-22T17:08:46.519Z,20.82
2023-04-22T17:12:48.134Z,20.75
2023-04-22T17:16:49.812Z,20.66
2023-04-22T17:20:51.680Z,20.56
2023-04-22T17:24:53.257Z,20.53
2023-04-22T17:28:54.902Z,20.46
2023-04-22T17:32:56.584Z,20.35
2023-04-22T17:36:58.182Z,20.27
2023-04-22T17:40:59.896Z,20.19
2023-04-22T17:45:01.471Z,20.07
2023-04-22T17:49:03.046Z,20.02
2023-04-22T17:53:04.694Z,19.95
2023-04-22T17:57:06.326Z,19.85
2023-04-22T18:01:08.448Z,19.78
2023-04-22T18:05:10.148Z,19.72
2023-04-22T18:09:11.778Z,19.62
2023-04-22T18:13:13.317Z,19.52
2023-04-22T18:17:14.948Z,19.42
2023-04-22T18:21:16.985Z,19.38
2023-04-22T18:25:18.653Z,19.28
2023-04-22T18:29:20.739Z,19.23
2023-04-22T18:33:22.353Z,19.12
2023-04-22T18:37:24.674Z,19.02
2023-04-22T18:41:26.270Z,18.97
2023-04-22T18:45:27.791Z,18.89
2023-04-22T18:49:33.512Z,18.83
2023-04-22T18:53:35.103Z,18.78
2023-04-22T18:57:36.761Z,18.76
2023-04-22T19:01:38.341Z,18.74
2023-04-22T19:05:39.939Z,18.71
2023-04-22T19:09:41.531Z,18.64
2023-04-22T19:13:43.202Z,18.59
2023-04-22T19:17:44.835Z,18.54
2023-04-22T19:21:46.464Z,18.54
2023-04-22T19:25:48.133Z,18.51
2023-04-22T19:29:51.146Z,18.46
2023-04-22T19:33:52.831Z,18.41
2023-04-22T19:37:54.374Z,18.34
2023-04-22T19:41:55.942Z,18.25
2023-04-22T19:45:58.283Z,18.16
2023-04-22T19:50:00.094Z,18.11
2023-04-22T19:54:02.884Z,18.02
2023-04-22T19:58:05.394Z,17.92
2023-04-22T20:02:09.620Z,17.87
2023-04-22T20:06:12.796Z,17.77
2023-04-22T20:10:15.577Z,17.77
2023-04-22T20:14:18.275Z,17.65
2023-04-22T20:18:19.944Z,17.54
2023-04-22T20:22:24.229Z,17.46
2023-04-22T20:26:26.233Z,17.40
2023-04-22T20:30:27.975Z,17.25
2023-04-22T20:34:31.384Z,17.18
2023-04-22T20:38:39.712Z,17.05
2023-04-22T20:42:41.261Z,16.96
2023-04-22T20:46:42.861Z,17.00
2023-04-22T20:50:44.566Z,16.99
2023-04-22T20:54:46.404Z,17.02
2023-04-22T20:58:48.527Z,17.00
2023-04-22T21:02:50.995Z,16.98
2023-04-22T21:06:54.576Z,16.98
2023-04-22T21:10:56.567Z,16.91
2023-04-22T21:14:58.655Z,16.88
2023-04-22T21:19:03.240Z,16.82
2023-04-22T21:23:06.858Z,16.84
2023-04-22T21:27:08.505Z,16.80
2023-04-22T21:31:10.991Z,16.73
2023-04-22T21:35:12.559Z,16.72
2023-04-22T21:39:14.223Z,16.69
2023-04-22T21:43:15.883Z,16.67
2023-04-22T21:47:17.666Z,16.69
2023-04-22T21:51:20.261Z,16.60
2023-04-22T21:55:21.934Z,16.55
2023-04-22T21:59:24.744Z,16.52
2023-04-22T22:03:26.464Z,16.50
2023-04-22T22:07:28.127Z,16.50
2023-04-22T22:11:31.306Z,16.45
2023-04-22T22:15:33.075Z,16.42
2023-04-22T22:19:34.677Z,16.37
2023-04-22T22:23:36.225Z,16.44
2023-04-22T22:27:40.799Z,16.41
2023-04-22T22:31:43.790Z,16.40
2023-04-22T22:35:45.365Z,16.37
2023-04-22T22:39:47.189Z,16.29
2023-04-22T22:43:48.900Z,16.22
2023-04-22T22:47:50.530Z,16.26
2023-04-22T22:51:52.102Z,16.26
2023-04-22T22:55:53.640Z,16.29
2023-04-22T22:59:55.481Z,16.27
2023-04-22T23:03:57.182Z,16.23
2023-04-22T23:07:58.947Z,16.23
2023-04-22T23:12:01.003Z,16.22
2023-04-22T23:16:02.595Z,16.17
2023-04-22T23:20:04.639Z,16.17
2023-04-22T23:24:08.528Z,16.16
2023-04-22T23:28:10.328Z,16.10
2023-04-22T23:32:14.916Z,16.10
2023-04-22T23:36:21.234Z,16.04
2023-04-22T23:40:22.899Z,15.98
2023-04-22T23:44:24.449Z,15.91
2023-04-22T23:48:26.052Z,15.89
2023-04-22T23:52:27.598Z,15.89
2023-04-22T23:56:29.437Z,15.80
